Time;durP1;ratioP1;P1;durP2;ratioP2;P2;SDS_P1;SDS_P2;PMS_P1;PMS_P2;Temp;Humidity;BMP_temperature;BMP_pressure;BME280_temperature;BME280_humidity;BME280_pressure;Samples;Min_cycle;Max_cycle;Signal;HPM_P1;HPM_P2
2021/01/01 00:00:43;;;;;;;14.25;12.48;;;6.60;99.90;;;;;;5075493;28;20213;-78
2021/01/01 00:03:10;;;;;;;17.05;13.25;;;6.60;99.90;;;;;;5077712;28;20194;-78
2021/01/01 00:05:37;;;;;;;17.83;12.20;;;6.60;99.90;;;;;;5070934;28;20211;-79
2021/01/01 00:08:03;;;;;;;15.70;12.60;;;6.60;99.90;;;;;;5074600;28;20568;-78
2021/01/01 00:10:30;;;;;;;14.88;13.20;;;6.60;99.90;;;;;;5077907;28;20208;-78
2021/01/01 00:12:56;;;;;;;16.27;11.82;;;6.60;99.90;;;;;;5076206;28;20194;-78
2021/01/01 00:15:23;;;;;;;14.48;12.50;;;6.50;99.90;;;;;;5078119;28;20276;-78
2021/01/01 00:17:49;;;;;;;15.77;14.10;;;6.50;99.90;;;;;;5078629;28;20213;-78
2021/01/01 00:20:17;;;;;;;16.33;13.15;;;6.50;99.90;;;;;;5073737;28;20191;-78
2021/01/01 00:22:43;;;;;;;16.88;12.00;;;6.60;99.90;;;;;;5074126;28;20210;-78
2021/01/01 00:25:10;;;;;;;13.35;11.93;;;6.50;99.90;;;;;;5078749;28;20195;-78
2021/01/01 00:27:37;;;;;;;14.77;12.25;;;6.50;99.90;;;;;;5086478;28;20221;-78
2021/01/01 00:30:05;;;;;;;14.52;11.68;;;6.60;99.90;;;;;;5086511;28;20292;-78
2021/01/01 00:32:31;;;;;;;15.73;13.02;;;6.60;99.90;;;;;;5082006;28;20297;-78
2021/01/01 00:34:57;;;;;;;14.77;11.15;;;6.60;99.90;;;;;;5073585;28;20528;-78
2021/01/01 00:37:25;;;;;;;14.48;12.18;;;6.60;99.90;;;;;;5073784;28;20298;-78
2021/01/01 00:39:51;;;;;;;12.55;10.70;;;6.60;99.90;;;;;;5074518;28;20198;-78
2021/01/01 00:42:17;;;;;;;12.10;10.80;;;6.60;99.90;;;;;;5078967;28;20201;-78
2021/01/01 00:44:44;;;;;;;12.63;11.25;;;6.50;99.90;;;;;;5088427;28;20581;-79
2021/01/01 00:47:10;;;;;;;12.77;10.68;;;6.60;99.90;;;;;;5078392;28;20210;-77
2021/01/01 00:49:37;;;;;;;14.65;10.10;;;6.60;99.90;;;;;;5089983;28;20259;-77
2021/01/01 00:52:04;;;;;;;13.45;10.52;;;6.60;99.90;;;;;;5092594;28;20639;-77
2021/01/01 00:54:32;;;;;;;13.13;10.70;;;6.60;99.90;;;;;;5093918;28;20228;-77
2021/01/01 00:56:58;;;;;;;14.35;11.10;;;6.60;99.90;;;;;;5078476;28;20247;-77
2021/01/01 00:59:24;;;;;;;13.57;10.50;;;6.50;99.90;;;;;;5073755;28;20202;-78
2021/01/01 01:01:51;;;;;;;14.90;11.43;;;6.50;99.90;;;;;;5074719;28;20396;-77
2021/01/01 01:04:17;;;;;;;13.85;11.02;;;6.50;99.90;;;;;;5089247;28;20202;-77
2021/01/01 01:06:44;;;;;;;12.70;11.02;;;6.50;99.90;;;;;;5073462;28;20226;-77
2021/01/01 01:09:11;;;;;;;13.13;10.88;;;6.50;99.90;;;;;;5075523;28;20190;-77
2021/01/01 01:11:38;;;;;;;15.55;12.00;;;6.50;99.90;;;;;;5086215;28;20662;-77
2021/01/01 01:14:04;;;;;;;13.40;12.10;;;6.50;99.90;;;;;;5092759;28;20197;-77
2021/01/01 01:16:32;;;;;;;13.43;12.02;;;6.50;99.90;;;;;;5092241;28;20185;-77
2021/01/01 01:19:00;;;;;;;14.00;11.65;;;6.50;99.90;;;;;;5076436;28;20229;-77
2021/01/01 01:21:27;;;;;;;15.98;11.07;;;6.60;99.90;;;;;;5075496;28;20250;-77
2021/01/01 01:23:55;;;;;;;13.45;11.15;;;6.50;99.90;;;;;;5081482;28;20609;-77
2021/01/01 01:26:21;;;;;;;15.98;12.82;;;6.50;99.90;;;;;;5073636;28;20309;-77
2021/01/01 01:28:49;;;;;;;19.30;14.65;;;6.50;99.90;;;;;;5073192;28;20194;-77
2021/01/01 01:31:16;;;;;;;14.68;11.82;;;6.60;99.90;;;;;;5072972;28;20263;-78
2021/01/01 01:33:42;;;;;;;17.70;13.40;;;6.60;99.90;;;;;;5078268;28;20237;-77
2021/01/01 01:36:09;;;;;;;16.02;12.50;;;6.60;99.90;;;;;;5089254;28;20193;-77
2021/01/01 01:38:35;;;;;;;14.55;12.10;;;6.50;99.90;;;;;;5090730;28;20233;-77
2021/01/01 01:41:01;;;;;;;15.57;12.00;;;6.50;99.90;;;;;;5092633;28;20954;-77
2021/01/01 01:43:28;;;;;;;14.77;12.13;;;6.50;99.90;;;;;;5090004;28;20189;-77
2021/01/01 01:45:56;;;;;;;17.38;12.60;;;6.50;99.90;;;;;;5091217;28;20209;-77
2021/01/01 01:48:27;;;;;;;16.67;13.35;;;6.50;99.90;;;;;;5073149;28;20652;-77
2021/01/01 01:50:53;;;;;;;17.42;13.32;;;6.50;99.90;;;;;;5072438;28;20268;-77
2021/01/01 01:53:21;;;;;;;17.95;14.60;;;6.60;99.90;;;;;;5073477;28;20224;-78
2021/01/01 01:55:49;;;;;;;14.27;12.18;;;6.50;99.90;;;;;;5073048;28;20194;-77
2021/01/01 01:58:15;;;;;;;17.08;13.52;;;6.50;99.90;;;;;;5074783;28;20254;-77
2021/01/01 02:00:57;;;;;;;14.50;11.55;;;6.50;99.90;;;;;;5087423;28;20217;-77
2021/01/01 02:03:26;;;;;;;18.17;12.77;;;6.50;99.90;;;;;;5089645;28;20182;-78
2021/01/01 02:05:52;;;;;;;16.38;13.45;;;6.50;99.90;;;;;;5071545;28;20213;-79
2021/01/01 02:08:19;;;;;;;13.88;11.43;;;6.50;99.90;;;;;;5072534;28;20249;-76
2021/01/01 02:10:46;;;;;;;17.98;13.38;;;6.50;99.90;;;;;;5072033;28;20248;-80
2021/01/01 02:13:13;;;;;;;14.18;11.48;;;6.50;99.90;;;;;;5083157;28;20596;-79
2021/01/01 02:15:39;;;;;;;18.95;14.27;;;6.50;99.90;;;;;;5072544;28;20205;-80
2021/01/01 02:18:06;;;;;;;16.70;13.23;;;6.50;99.90;;;;;;5072817;28;20263;-79
2021/01/01 02:20:33;;;;;;;18.63;14.43;;;6.50;99.90;;;;;;5083702;28;20581;-80
2021/01/01 02:23:00;;;;;;;17.27;13.93;;;6.40;99.90;;;;;;5077106;28;20186;-83
2021/01/01 02:25:27;;;;;;;16.05;12.57;;;6.40;99.90;;;;;;5092750;28;20202;-81
2021/01/01 02:27:53;;;;;;;18.30;14.80;;;6.40;99.90;;;;;;5082222;28;20201;-81
2021/01/01 02:30:20;;;;;;;18.65;13.98;;;6.40;99.90;;;;;;5076557;28;20190;-81
2021/01/01 02:32:46;;;;;;;18.30;14.45;;;6.40;99.90;;;;;;5082990;28;20534;-81
2021/01/01 02:35:12;;;;;;;17.13;12.93;;;6.50;99.90;;;;;;5075248;28;20199;-81
2021/01/01 02:37:39;;;;;;;21.40;17.33;;;6.40;99.90;;;;;;5071130;28;20229;-81
2021/01/01 02:40:07;;;;;;;20.48;14.93;;;6.50;99.90;;;;;;5086426;28;20201;-80
2021/01/01 02:42:34;;;;;;;20.42;14.88;;;6.40;99.90;;;;;;5086165;28;20202;-83
2021/01/01 02:45:00;;;;;;;21.70;14.70;;;6.50;99.90;;;;;;5092053;28;20197;-83
2021/01/01 02:47:27;;;;;;;20.58;15.60;;;6.50;99.90;;;;;;5091266;28;20270;-82
2021/01/01 02:49:53;;;;;;;18.92;14.77;;;6.50;99.90;;;;;;5074862;28;20190;-82
2021/01/01 02:52:19;;;;;;;20.83;15.27;;;6.40;99.90;;;;;;5091860;28;20193;-82
2021/01/01 02:54:46;;;;;;;17.65;13.85;;;6.40;99.90;;;;;;5092128;28;20193;-81
2021/01/01 02:57:13;;;;;;;20.67;14.90;;;6.40;99.90;;;;;;5091235;28;20218;-82
2021/01/01 02:59:39;;;;;;;18.95;14.40;;;6.40;99.90;;;;;;5075453;28;20563;-81
2021/01/01 03:02:06;;;;;;;17.25;12.95;;;6.40;99.90;;;;;;5091581;28;20648;-82
2021/01/01 03:04:32;;;;;;;18.20;14.75;;;6.40;99.90;;;;;;5090002;28;20194;-82
2021/01/01 03:06:58;;;;;;;21.23;15.07;;;6.40;99.90;;;;;;5078628;28;20662;-80
2021/01/01 03:09:24;;;;;;;16.20;12.88;;;6.40;99.90;;;;;;5071403;28;20217;-82
2021/01/01 03:11:51;;;;;;;21.88;15.18;;;6.40;99.90;;;;;;5077734;28;20204;-82
2021/01/01 03:14:18;;;;;;;20.55;14.02;;;6.40;99.90;;;;;;5071484;28;20198;-81
2021/01/01 03:16:44;;;;;;;22.98;15.32;;;6.40;99.90;;;;;;5072008;28;20201;-81
2021/01/01 03:19:10;;;;;;;22.90;16.10;;;6.50;99.90;;;;;;5071187;28;20202;-80
2021/01/01 03:21:36;;;;;;;18.77;13.35;;;6.50;99.90;;;;;;5081002;28;20664;-81
2021/01/01 03:24:03;;;;;;;16.65;13.45;;;6.40;99.90;;;;;;5091168;28;20197;-81
2021/01/01 03:26:29;;;;;;;20.65;13.80;;;6.40;99.90;;;;;;5090769;28;20206;-80
2021/01/01 03:28:56;;;;;;;19.25;14.85;;;6.40;99.90;;;;;;5072733;28;20194;-81
2021/01/01 03:31:23;;;;;;;20.80;15.07;;;6.40;99.90;;;;;;5079712;28;20192;-81
2021/01/01 03:33:49;;;;;;;17.98;14.38;;;6.40;99.90;;;;;;5078516;28;20196;-81
2021/01/01 03:36:15;;;;;;;19.83;14.10;;;6.40;99.90;;;;;;5089499;28;20197;-82
2021/01/01 03:38:42;;;;;;;18.75;13.30;;;6.40;99.90;;;;;;5091092;28;20229;-81
2021/01/01 03:41:08;;;;;;;20.05;13.57;;;6.50;99.90;;;;;;5085348;28;20191;-81
2021/01/01 03:43:34;;;;;;;22.30;15.25;;;6.40;99.90;;;;;;5076904;28;20621;-80
2021/01/01 03:46:00;;;;;;;17.38;13.23;;;6.40;99.90;;;;;;5075406;28;20678;-78
2021/01/01 03:48:27;;;;;;;26.20;18.17;;;6.50;99.90;;;;;;5074883;28;20206;-79
2021/01/01 03:50:54;;;;;;;23.00;16.75;;;6.50;99.90;;;;;;5078490;28;20201;-78
2021/01/01 03:53:20;;;;;;;19.20;15.18;;;6.40;99.90;;;;;;5074886;28;20556;-78
2021/01/01 03:55:46;;;;;;;20.40;14.45;;;6.50;99.90;;;;;;5093774;28;20189;-81
2021/01/01 03:58:13;;;;;;;21.58;14.73;;;6.50;99.90;;;;;;5095426;28;20957;-82
2021/01/01 04:00:39;;;;;;;19.10;14.75;;;6.40;99.90;;;;;;5092898;28;20223;-81
2021/01/01 04:03:05;;;;;;;21.30;16.13;;;6.40;99.90;;;;;;5096000;28;20223;-82
2021/01/01 04:05:32;;;;;;;23.42;17.15;;;6.40;99.90;;;;;;5095600;28;20213;-81
2021/01/01 04:07:58;;;;;;;17.40;13.60;;;6.40;99.90;;;;;;5093515;28;20221;-81
2021/01/01 04:10:25;;;;;;;22.88;15.77;;;6.40;99.90;;;;;;5091107;28;20186;-81
2021/01/01 04:12:51;;;;;;;21.13;15.65;;;6.40;99.90;;;;;;5074282;28;20202;-81
2021/01/01 04:15:17;;;;;;;22.42;14.75;;;6.40;99.90;;;;;;5074530;28;20223;-80
2021/01/01 04:17:44;;;;;;;19.00;13.35;;;6.40;99.90;;;;;;5087037;28;20193;-80
2021/01/01 04:20:11;;;;;;;21.10;14.98;;;6.40;99.90;;;;;;5089167;28;20198;-81
2021/01/01 04:22:38;;;;;;;21.75;15.15;;;6.40;99.90;;;;;;5074696;28;20213;-80
2021/01/01 04:25:06;;;;;;;19.45;14.32;;;6.40;99.90;;;;;;5074540;28;20686;-81
2021/01/01 04:27:32;;;;;;;22.00;15.73;;;6.40;99.90;;;;;;5078871;28;20214;-81
2021/01/01 04:29:59;;;;;;;17.52;14.13;;;6.30;99.90;;;;;;5075077;28;20198;-81
2021/01/01 04:32:25;;;;;;;20.77;14.68;;;6.40;99.90;;;;;;5075370;28;20686;-81
2021/01/01 04:34:51;;;;;;;19.58;14.60;;;6.40;99.90;;;;;;5084257;28;20217;-79
2021/01/01 04:37:17;;;;;;;21.75;14.73;;;6.40;99.90;;;;;;5093520;28;20213;-80
2021/01/01 04:39:46;;;;;;;20.67;15.82;;;6.40;99.90;;;;;;5075194;28;20285;-79
2021/01/01 04:42:13;;;;;;;19.05;14.70;;;6.30;99.90;;;;;;5088386;28;20191;-79
2021/01/01 04:44:39;;;;;;;21.45;16.15;;;6.30;99.90;;;;;;5073864;28;20198;-79
2021/01/01 04:47:07;;;;;;;21.95;14.63;;;6.40;99.90;;;;;;5074070;28;20221;-80
2021/01/01 04:49:33;;;;;;;24.50;16.80;;;6.40;99.90;;;;;;5074252;28;20224;-79
2021/01/01 04:52:03;;;;;;;20.50;13.93;;;6.40;99.90;;;;;;5076386;28;20190;-80
2021/01/01 04:54:33;;;;;;;20.20;14.70;;;6.40;99.90;;;;;;5093832;28;20250;-80
2021/01/01 04:57:00;;;;;;;22.80;15.27;;;6.30;99.90;;;;;;5094035;28;20632;-80
2021/01/01 04:59:27;;;;;;;22.67;14.43;;;6.30;99.90;;;;;;5078814;28;20197;-79
2021/01/01 05:01:53;;;;;;;20.73;15.27;;;6.30;99.90;;;;;;5092490;28;20204;-80
2021/01/01 05:04:19;;;;;;;21.67;15.65;;;6.30;99.90;;;;;;5084852;28;20198;-79
2021/01/01 05:06:45;;;;;;;16.83;13.05;;;6.30;99.90;;;;;;5073408;28;20658;-80
2021/01/01 05:09:13;;;;;;;21.40;15.63;;;6.30;99.90;;;;;;5073488;28;20247;-80
2021/01/01 05:11:40;;;;;;;19.42;14.15;;;6.30;99.90;;;;;;5078312;28;20200;-79
2021/01/01 05:14:08;;;;;;;20.00;14.63;;;6.30;99.90;;;;;;5078147;28;20209;-78
2021/01/01 05:16:35;;;;;;;19.63;14.15;;;6.30;99.90;;;;;;5073606;28;20206;-81
2021/01/01 05:19:10;;;;;;;16.75;12.38;;;6.30;99.90;;;;;;5073661;28;20206;-81
2021/01/01 05:21:37;;;;;;;20.17;15.82;;;6.30;99.90;;;;;;5073914;28;20185;-80
2021/01/01 05:24:06;;;;;;;22.23;15.93;;;6.30;99.90;;;;;;5073219;28;20255;-80
2021/01/01 05:26:32;;;;;;;17.90;14.10;;;6.30;99.90;;;;;;5086487;28;20217;-79
2021/01/01 05:29:05;;;;;;;17.98;13.45;;;6.30;99.90;;;;;;5082880;28;20189;-81
2021/01/01 05:31:33;;;;;;;19.20;14.10;;;6.30;99.90;;;;;;5073533;28;20201;-82
2021/01/01 05:34:04;;;;;;;20.85;15.30;;;6.30;99.90;;;;;;5072874;28;20194;-80
2021/01/01 05:36:36;;;;;;;23.30;15.65;;;6.30;99.90;;;;;;5072782;28;20604;-82
2021/01/01 05:39:05;;;;;;;22.90;15.73;;;6.30;99.90;;;;;;5074954;28;20193;-81
2021/01/01 05:41:34;;;;;;;21.00;15.52;;;6.40;99.90;;;;;;5073258;28;20254;-81
2021/01/01 05:44:11;;;;;;;22.25;15.75;;;6.30;99.90;;;;;;5073146;28;20283;-81
2021/01/01 05:46:39;;;;;;;16.92;13.35;;;6.30;99.90;;;;;;5072632;28;20825;-79
2021/01/01 05:49:05;;;;;;;18.95;14.50;;;6.30;99.90;;;;;;5087847;28;20194;-80
2021/01/01 05:51:31;;;;;;;21.35;14.68;;;6.30;99.90;;;;;;5092211;28;20208;-80
2021/01/01 05:54:11;;;;;;;22.00;15.35;;;6.20;99.90;;;;;;5073401;28;20205;-80
2021/01/01 05:56:40;;;;;;;24.98;15.48;;;6.20;99.90;;;;;;5072514;28;20585;-81
2021/01/01 05:59:10;;;;;;;18.45;13.65;;;6.30;99.90;;;;;;5076733;28;20390;-80
2021/01/01 06:01:41;;;;;;;26.33;14.52;;;6.20;99.90;;;;;;5090247;28;20193;-80
2021/01/01 06:04:07;;;;;;;20.88;14.00;;;6.30;99.90;;;;;;5092220;28;20272;-80
2021/01/01 06:06:34;;;;;;;21.13;15.18;;;6.20;99.90;;;;;;5091563;28;20229;-82
2021/01/01 06:09:04;;;;;;;18.65;13.60;;;6.30;99.90;;;;;;5091963;28;20202;-80
2021/01/01 06:11:35;;;;;;;23.45;15.85;;;6.20;99.90;;;;;;5092135;28;20270;-81
2021/01/01 06:14:04;;;;;;;20.15;13.52;;;6.30;99.90;;;;;;5092332;28;20188;-80
2021/01/01 06:16:36;;;;;;;17.67;14.15;;;6.20;99.90;;;;;;5089250;28;20194;-80
2021/01/01 06:19:11;;;;;;;22.08;14.13;;;6.30;99.90;;;;;;5072592;28;20190;-80
2021/01/01 06:21:42;;;;;;;19.27;14.05;;;6.30;99.90;;;;;;5072157;28;20190;-80
2021/01/01 06:24:17;;;;;;;20.58;14.10;;;6.30;99.90;;;;;;5072003;28;20182;-80
2021/01/01 06:26:44;;;;;;;23.27;15.57;;;6.30;99.90;;;;;;5072235;28;20213;-81
2021/01/01 06:29:16;;;;;;;18.50;14.32;;;6.30;99.90;;;;;;5079622;28;20201;-81
2021/01/01 06:31:45;;;;;;;19.75;13.98;;;6.20;99.90;;;;;;5086450;28;20248;-80
2021/01/01 06:34:28;;;;;;;24.20;15.88;;;6.20;99.90;;;;;;5071752;28;20217;-80
2021/01/01 06:36:55;;;;;;;18.55;14.13;;;6.20;99.90;;;;;;5071613;28;20603;-80
2021/01/01 06:39:45;;;;;;;19.35;14.50;;;6.20;99.90;;;;;;5072044;28;20183;-80
2021/01/01 06:42:12;;;;;;;21.98;14.85;;;6.20;99.90;;;;;;5078985;28;20681;-79
2021/01/01 06:44:41;;;;;;;17.85;13.82;;;6.20;99.90;;;;;;5091790;28;20217;-80
2021/01/01 06:47:09;;;;;;;20.90;15.52;;;6.20;99.90;;;;;;5090710;28;20235;-79
2021/01/01 06:49:38;;;;;;;20.85;15.75;;;6.20;99.90;;;;;;5090222;28;20197;-80
2021/01/01 06:52:13;;;;;;;18.10;14.52;;;6.20;99.90;;;;;;5091383;28;20201;-80
2021/01/01 06:55:00;;;;;;;21.90;15.00;;;6.20;99.90;;;;;;5089639;28;20185;-80
2021/01/01 06:57:28;;;;;;;21.15;14.57;;;6.20;99.90;;;;;;5071850;28;20223;-80
2021/01/01 06:59:56;;;;;;;18.67;14.10;;;6.20;99.90;;;;;;5072154;28;20554;-82
2021/01/01 07:02:26;;;;;;;19.00;13.52;;;6.10;99.90;;;;;;5086825;28;20633;-82
2021/01/01 07:04:54;;;;;;;21.05;15.07;;;6.10;99.90;;;;;;5085960;28;20194;-82
2021/01/01 07:07:39;;;;;;;18.40;14.00;;;6.20;99.90;;;;;;5071315;28;20217;-82
2021/01/01 07:10:07;;;;;;;21.05;14.85;;;6.20;99.90;;;;;;5072446;28;20198;-82
2021/01/01 07:12:33;;;;;;;23.75;16.77;;;6.20;99.90;;;;;;5071436;28;20201;-82
2021/01/01 07:15:00;;;;;;;21.98;15.40;;;6.20;99.90;;;;;;5070647;28;20194;-82
2021/01/01 07:17:26;;;;;;;18.52;14.40;;;6.10;99.90;;;;;;5085893;28;20197;-82
2021/01/01 07:19:53;;;;;;;20.63;14.90;;;6.20;99.90;;;;;;5090371;28;20200;-82
2021/01/01 07:22:20;;;;;;;20.40;15.18;;;6.10;99.90;;;;;;5090316;28;20203;-81
2021/01/01 07:24:46;;;;;;;19.15;14.60;;;6.20;99.90;;;;;;5091446;28;20217;-81
2021/01/01 07:27:12;;;;;;;18.58;14.50;;;6.20;99.90;;;;;;5090652;28;20208;-81
2021/01/01 07:29:39;;;;;;;23.98;16.63;;;6.10;99.90;;;;;;5086539;28;20200;-81
2021/01/01 07:32:08;;;;;;;20.27;14.55;;;6.20;99.90;;;;;;5071353;28;20255;-81
2021/01/01 07:34:34;;;;;;;21.52;14.05;;;6.20;99.90;;;;;;5071347;28;20202;-82
2021/01/01 07:37:02;;;;;;;19.23;15.13;;;6.20;99.90;;;;;;5084718;28;20236;-80
2021/01/01 07:39:29;;;;;;;23.35;15.48;;;6.10;99.90;;;;;;5071874;28;20201;-81
2021/01/01 07:42:06;;;;;;;18.90;14.52;;;6.10;99.90;;;;;;5070848;28;20198;-80
2021/01/01 07:44:33;;;;;;;22.23;16.77;;;6.10;99.90;;;;;;5079288;28;20197;-81
2021/01/01 07:46:59;;;;;;;22.02;15.55;;;6.10;99.90;;;;;;5085003;28;20206;-79
2021/01/01 07:49:32;;;;;;;20.23;15.40;;;6.10;99.90;;;;;;5072306;28;20529;-79
2021/01/01 07:52:05;;;;;;;19.70;14.70;;;6.10;99.90;;;;;;5071007;28;20198;-79
2021/01/01 07:54:45;;;;;;;20.42;14.80;;;6.10;99.90;;;;;;5070953;28;20186;-80
2021/01/01 07:57:11;;;;;;;22.08;15.20;;;6.10;99.90;;;;;;5079211;28;20190;-78
2021/01/01 07:59:38;;;;;;;23.85;14.93;;;6.10;99.90;;;;;;5091372;28;20206;-79
2021/01/01 08:02:05;;;;;;;21.65;15.50;;;5.60;99.90;;;;;;5077117;28;20634;-77
2021/01/01 08:04:32;;;;;;;22.25;15.98;;;6.00;99.90;;;;;;5090262;28;20190;-77
2021/01/01 08:06:58;;;;;;;22.85;15.57;;;6.10;99.90;;;;;;5083085;28;20210;-77
2021/01/01 08:09:25;;;;;;;19.70;14.10;;;5.90;99.90;;;;;;5072428;28;20212;-81
2021/01/01 08:12:03;;;;;;;21.60;16.85;;;6.10;99.90;;;;;;5080683;28;20197;-79
2021/01/01 08:14:29;;;;;;;20.48;14.75;;;6.00;99.90;;;;;;5074301;28;20206;-81
2021/01/01 08:16:56;;;;;;;18.98;14.73;;;6.10;99.90;;;;;;5076465;28;20197;-79
2021/01/01 08:19:23;;;;;;;20.73;15.10;;;6.00;99.90;;;;;;5080839;28;20194;-79
2021/01/01 08:22:04;;;;;;;21.50;15.55;;;6.10;99.90;;;;;;5077857;28;20202;-79
2021/01/01 08:24:36;;;;;;;20.80;15.07;;;6.00;99.90;;;;;;5076051;28;20634;-78
2021/01/01 08:27:03;;;;;;;17.63;13.60;;;6.00;99.90;;;;;;5079848;28;20214;-77
2021/01/01 08:29:29;;;;;;;22.13;15.70;;;6.00;99.90;;;;;;5080153;28;20194;-79
2021/01/01 08:31:57;;;;;;;19.13;14.38;;;6.00;99.90;;;;;;5081222;28;20201;-80
2021/01/01 08:34:24;;;;;;;21.33;15.23;;;6.00;99.90;;;;;;5073818;28;20630;-79
2021/01/01 08:36:51;;;;;;;27.45;17.23;;;6.00;99.90;;;;;;5074118;28;20233;-78
2021/01/01 08:39:17;;;;;;;21.00;14.48;;;6.00;99.90;;;;;;5085930;28;20201;-78
2021/01/01 08:41:45;;;;;;;23.75;14.35;;;6.00;99.90;;;;;;5085899;28;20194;-78
2021/01/01 08:44:13;;;;;;;20.85;15.80;;;6.00;99.90;;;;;;5074435;28;20202;-78
2021/01/01 08:46:40;;;;;;;20.15;15.05;;;6.00;99.90;;;;;;5073815;28;20286;-79
2021/01/01 08:49:15;;;;;;;23.80;16.15;;;6.00;99.90;;;;;;5074937;28;20186;-78
2021/01/01 08:51:42;;;;;;;22.52;16.10;;;6.00;99.90;;;;;;5082911;28;20204;-78
2021/01/01 08:54:08;;;;;;;23.27;16.05;;;6.10;99.90;;;;;;5085197;28;20194;-77
2021/01/01 08:56:36;;;;;;;22.08;15.23;;;6.00;99.90;;;;;;5084810;28;20190;-78
2021/01/01 08:59:10;;;;;;;24.27;15.60;;;6.00;99.90;;;;;;5075068;28;20228;-77
2021/01/01 09:01:36;;;;;;;20.70;15.48;;;6.00;99.90;;;;;;5089803;28;20641;-78
2021/01/01 09:04:03;;;;;;;20.58;14.65;;;6.00;99.90;;;;;;5076802;28;20194;-78
2021/01/01 09:06:30;;;;;;;19.80;14.13;;;6.00;99.90;;;;;;5073914;28;20210;-79
2021/01/01 09:09:04;;;;;;;22.95;16.92;;;6.00;99.90;;;;;;5082938;28;20193;-79
2021/01/01 09:11:30;;;;;;;19.10;15.05;;;6.00;99.90;;;;;;5077086;28;20206;-80
2021/01/01 09:14:01;;;;;;;21.92;17.88;;;6.00;99.90;;;;;;5073607;28;20202;-79
2021/01/01 09:16:28;;;;;;;20.90;16.20;;;6.00;99.90;;;;;;5077496;28;20622;-79
2021/01/01 09:18:55;;;;;;;22.63;17.10;;;5.90;99.90;;;;;;5086245;28;20201;-79
2021/01/01 09:21:21;;;;;;;19.70;15.70;;;6.00;99.90;;;;;;5073280;28;20202;-80
2021/01/01 09:23:52;;;;;;;16.60;12.98;;;6.00;99.90;;;;;;5073264;28;20194;-80
2021/01/01 09:26:23;;;;;;;22.45;16.58;;;6.00;99.90;;;;;;5073662;28;20198;-79
2021/01/01 09:28:58;;;;;;;23.23;16.02;;;6.00;99.90;;;;;;5073255;28;20201;-80
2021/01/01 09:31:25;;;;;;;21.30;16.25;;;6.00;99.90;;;;;;5088244;28;20196;-80
2021/01/01 09:34:00;;;;;;;23.75;16.83;;;6.00;99.90;;;;;;5081920;28;20198;-79
2021/01/01 09:36:26;;;;;;;20.17;15.02;;;6.00;99.90;;;;;;5092298;28;20193;-79
2021/01/01 09:38:52;;;;;;;20.55;15.80;;;6.00;99.90;;;;;;5081104;28;20554;-79
2021/01/01 09:41:19;;;;;;;22.88;15.02;;;6.00;99.90;;;;;;5093308;28;20272;-80
2021/01/01 09:43:45;;;;;;;21.17;15.50;;;6.00;99.90;;;;;;5080803;28;20198;-79
2021/01/01 09:46:11;;;;;;;20.50;16.02;;;6.00;99.90;;;;;;5073023;28;20206;-80
2021/01/01 09:48:38;;;;;;;29.02;16.20;;;6.00;99.90;;;;;;5072574;28;20638;-80
2021/01/01 09:51:05;;;;;;;24.60;14.85;;;6.00;99.90;;;;;;5079912;28;20206;-79
2021/01/01 09:53:31;;;;;;;23.65;16.00;;;6.00;99.90;;;;;;5073339;28;20194;-80
2021/01/01 09:55:57;;;;;;;21.27;16.98;;;6.00;99.90;;;;;;5073559;28;20214;-80
2021/01/01 09:58:24;;;;;;;21.88;15.57;;;6.00;99.90;;;;;;5073498;28;20206;-80
2021/01/01 10:00:51;;;;;;;22.65;14.93;;;6.00;99.90;;;;;;5075187;28;20216;-82
2021/01/01 10:03:17;;;;;;;20.88;15.90;;;6.00;99.90;;;;;;5090256;28;20726;-82
2021/01/01 10:05:46;;;;;;;23.38;17.85;;;6.00;99.90;;;;;;5091240;28;20200;-81
2021/01/01 10:08:14;;;;;;;25.92;15.68;;;6.00;99.90;;;;;;5074211;28;20214;-81
2021/01/01 10:10:41;;;;;;;23.65;16.73;;;6.00;99.90;;;;;;5075168;28;20198;-81
2021/01/01 10:13:07;;;;;;;25.23;16.45;;;6.00;99.90;;;;;;5073775;28;20198;-83
2021/01/01 10:15:33;;;;;;;24.77;16.08;;;6.00;99.90;;;;;;5082927;28;20205;-83
2021/01/01 10:18:00;;;;;;;25.02;18.15;;;6.00;99.90;;;;;;5074663;28;20200;-80
2021/01/01 10:20:26;;;;;;;23.20;16.95;;;6.00;99.90;;;;;;5090723;28;20637;-80
2021/01/01 10:22:52;;;;;;;23.70;16.95;;;6.00;99.90;;;;;;5092459;28;20715;-80
2021/01/01 10:25:19;;;;;;;26.85;18.15;;;6.10;99.90;;;;;;5091725;28;20193;-80
2021/01/01 10:27:45;;;;;;;23.98;16.85;;;6.10;99.90;;;;;;5079644;28;20232;-80
2021/01/01 10:30:13;;;;;;;18.48;14.73;;;6.20;99.90;;;;;;5079318;28;20198;-80
2021/01/01 10:32:39;;;;;;;24.10;15.75;;;6.20;99.90;;;;;;5092219;28;20203;-80
2021/01/01 10:35:06;;;;;;;23.70;14.60;;;6.20;99.90;;;;;;5076791;28;20671;-80
2021/01/01 10:37:33;;;;;;;22.92;16.02;;;6.20;99.90;;;;;;5074194;28;20225;-80
2021/01/01 10:39:59;;;;;;;24.67;17.63;;;6.30;99.90;;;;;;5093191;28;20200;-80
2021/01/01 10:42:26;;;;;;;23.00;16.13;;;6.20;99.90;;;;;;5092466;28;20197;-80
2021/01/01 10:44:53;;;;;;;23.77;17.52;;;6.20;99.90;;;;;;5088266;28;20198;-80
2021/01/01 10:47:19;;;;;;;23.17;16.52;;;6.10;99.90;;;;;;5073172;28;20214;-80
2021/01/01 10:49:45;;;;;;;24.25;17.35;;;6.20;99.90;;;;;;5078323;28;20198;-79
2021/01/01 10:52:12;;;;;;;23.40;16.50;;;6.20;99.90;;;;;;5071522;28;20260;-80
2021/01/01 10:54:38;;;;;;;23.67;16.10;;;6.20;99.90;;;;;;5082336;28;20206;-80
2021/01/01 10:57:04;;;;;;;22.80;16.05;;;6.30;99.90;;;;;;5087997;28;20213;-80
2021/01/01 10:59:32;;;;;;;24.33;16.10;;;6.30;99.90;;;;;;5091582;28;20216;-80
2021/01/01 11:01:59;;;;;;;27.00;18.60;;;6.30;99.90;;;;;;5089900;28;20556;-80
2021/01/01 11:04:25;;;;;;;23.27;16.38;;;6.30;99.90;;;;;;5085959;28;20204;-80
2021/01/01 11:06:52;;;;;;;21.60;17.13;;;6.20;99.90;;;;;;5090575;28;20209;-80
2021/01/01 11:09:18;;;;;;;23.60;16.98;;;6.30;99.90;;;;;;5086848;28;20259;-81
2021/01/01 11:11:46;;;;;;;26.00;18.05;;;6.20;99.90;;;;;;5084797;28;20586;-80
2021/01/01 11:14:15;;;;;;;24.75;17.20;;;6.20;99.90;;;;;;5072789;28;20194;-80
2021/01/01 12:23:02;;;;;;;33.17;22.00;;;6.10;99.90;;;;;;5052654;28;20190;-76
2021/01/01 12:25:29;;;;;;;38.85;22.80;;;6.10;99.90;;;;;;5069524;28;20195;-74
2021/01/01 12:27:59;;;;;;;29.35;21.05;;;6.20;99.90;;;;;;5074452;28;20210;-75
2021/01/01 12:30:26;;;;;;;31.48;21.10;;;6.10;99.90;;;;;;5087507;28;20263;-76
2021/01/01 12:32:54;;;;;;;31.83;22.75;;;6.10;99.90;;;;;;5093369;28;20254;-79
2021/01/01 12:35:20;;;;;;;34.92;22.85;;;6.10;99.90;;;;;;5082488;28;20207;-78
2021/01/01 12:37:59;;;;;;;29.05;20.10;;;6.20;99.90;;;;;;5077026;28;20278;-75
2021/01/01 12:40:26;;;;;;;32.10;20.73;;;6.30;99.90;;;;;;5076097;28;20288;-75
2021/01/01 12:42:52;;;;;;;26.65;19.38;;;6.30;99.90;;;;;;5094156;28;20212;-74
2021/01/01 12:45:18;;;;;;;27.85;19.80;;;6.30;99.90;;;;;;5092371;28;20540;-75
2021/01/01 12:47:44;;;;;;;30.45;19.85;;;6.30;99.90;;;;;;5080812;28;20230;-75
2021/01/01 12:50:12;;;;;;;32.38;21.30;;;6.20;99.90;;;;;;5075173;28;20214;-74
2021/01/01 12:52:38;;;;;;;31.65;20.88;;;6.30;99.90;;;;;;5077000;28;20202;-74
2021/01/01 12:55:06;;;;;;;27.08;18.42;;;6.30;99.90;;;;;;5083300;28;20647;-74
2021/01/01 12:57:32;;;;;;;31.73;18.45;;;6.40;99.90;;;;;;5086111;28;20190;-76
2021/01/01 12:59:59;;;;;;;33.38;22.27;;;6.50;99.90;;;;;;5074746;28;20202;-73
2021/01/01 13:02:25;;;;;;;30.80;20.65;;;6.30;99.90;;;;;;5090809;28;20224;-74
2021/01/01 13:04:52;;;;;;;29.45;20.67;;;6.40;99.90;;;;;;5090971;28;20209;-74
2021/01/01 13:07:18;;;;;;;26.50;18.90;;;6.30;99.90;;;;;;5074260;28;20210;-73
2021/01/01 13:09:44;;;;;;;27.35;19.42;;;6.40;99.90;;;;;;5077269;28;20209;-74
2021/01/01 13:12:11;;;;;;;31.33;20.02;;;6.40;99.90;;;;;;5084234;28;20209;-73
2021/01/01 13:14:37;;;;;;;31.73;18.23;;;6.40;99.90;;;;;;5090144;28;20202;-74
2021/01/01 13:17:04;;;;;;;25.83;17.30;;;6.30;99.90;;;;;;5085501;28;20197;-77
2021/01/01 13:19:30;;;;;;;31.38;20.48;;;6.40;99.90;;;;;;5074239;28;20202;-77
2021/01/01 13:21:57;;;;;;;24.20;18.42;;;6.40;99.90;;;;;;5086294;28;20204;-77
2021/01/01 13:24:23;;;;;;;26.13;18.00;;;6.40;99.90;;;;;;5073255;28;20300;-75
2021/01/01 13:26:49;;;;;;;25.00;19.20;;;6.40;99.90;;;;;;5078543;28;20249;-77
2021/01/01 13:29:17;;;;;;;27.77;18.80;;;6.50;99.90;;;;;;5083200;28;20229;-75
2021/01/01 13:31:44;;;;;;;26.67;18.02;;;6.40;99.90;;;;;;5092554;28;20189;-76
2021/01/01 13:34:11;;;;;;;24.90;18.80;;;6.40;99.90;;;;;;5092161;28;20228;-76
2021/01/01 13:36:38;;;;;;;34.67;18.80;;;6.40;99.90;;;;;;5075314;28;20191;-76
2021/01/01 13:39:05;;;;;;;25.55;17.60;;;6.30;99.90;;;;;;5073070;28;20193;-73
2021/01/01 13:41:32;;;;;;;26.88;18.05;;;6.30;99.90;;;;;;5080904;28;20301;-75
2021/01/01 13:43:58;;;;;;;26.98;16.90;;;6.30;99.90;;;;;;5082578;28;20876;-75